createdAt,value
2022-08-17T00:01:57.322Z,20.13
2022-08-17T00:04:50.682Z,20.05
2022-08-17T00:07:38.677Z,19.86
2022-08-17T00:10:27.492Z,19.78
2022-08-17T00:13:26.148Z,19.74
2022-08-17T00:16:23.056Z,19.65
2022-08-17T00:19:32.758Z,19.61
2022-08-17T00:22:34.430Z,19.63
2022-08-17T00:25:23.886Z,19.66
2022-08-17T00:28:14.969Z,19.65
2022-08-17T00:31:07.000Z,19.63
2022-08-17T00:33:54.863Z,19.56
2022-08-17T00:36:42.801Z,19.65
2022-08-17T00:39:30.960Z,19.73
2022-08-17T00:42:20.004Z,19.71
2022-08-17T00:45:12.035Z,19.60
2022-08-17T00:47:59.921Z,19.57
2022-08-17T00:51:12.926Z,19.47
2022-08-17T00:54:23.016Z,19.52
2022-08-17T00:57:18.668Z,19.49
2022-08-17T01:00:35.447Z,19.51
2022-08-17T01:03:26.212Z,19.50
2022-08-17T01:06:14.157Z,19.52
2022-08-17T01:09:03.516Z,19.50
2022-08-17T01:11:52.422Z,19.51
2022-08-17T01:14:40.917Z,19.51
2022-08-17T01:17:28.880Z,19.47
2022-08-17T01:20:17.045Z,19.29
2022-08-17T01:23:05.126Z,19.35
2022-08-17T01:25:57.498Z,19.27
2022-08-17T01:28:54.621Z,19.14
2022-08-17T01:31:49.837Z,19.34
2022-08-17T01:34:43.580Z,19.39
2022-08-17T01:37:42.451Z,19.41
2022-08-17T01:40:41.113Z,19.43
2022-08-17T01:43:45.224Z,19.36
2022-08-17T01:46:37.416Z,19.25
2022-08-17T01:49:25.348Z,19.17
2022-08-17T01:52:13.751Z,19.05
2022-08-17T01:55:02.330Z,19.05
2022-08-17T01:57:50.154Z,18.98
2022-08-17T02:00:59.665Z,18.91
2022-08-17T02:03:59.331Z,18.94
2022-08-17T02:06:54.365Z,18.98
2022-08-17T02:09:43.982Z,19.02
2022-08-17T02:12:40.457Z,19.08
2022-08-17T02:15:29.400Z,19.15
2022-08-17T02:18:17.353Z,19.18
2022-08-17T02:21:05.885Z,19.09
2022-08-17T02:23:55.077Z,19.15
2022-08-17T02:26:43.294Z,19.01
2022-08-17T02:29:31.377Z,19.03
2022-08-17T02:32:28.455Z,18.95
2022-08-17T02:35:16.445Z,18.87
2022-08-17T02:38:08.267Z,18.89
2022-08-17T02:40:56.229Z,18.60
2022-08-17T02:43:44.041Z,18.52
2022-08-17T02:46:32.712Z,18.61
2022-08-17T02:49:20.558Z,18.52
2022-08-17T02:52:11.422Z,18.42
2022-08-17T02:54:59.223Z,18.49
2022-08-17T02:57:47.811Z,18.53
2022-08-17T03:00:43.981Z,18.53
2022-08-17T03:03:31.923Z,18.55
2022-08-17T03:06:19.839Z,18.59
2022-08-17T03:09:07.933Z,18.56
2022-08-17T03:11:56.226Z,18.52
2022-08-17T03:14:44.848Z,18.59
2022-08-17T03:17:32.748Z,18.55
2022-08-17T03:20:21.676Z,18.55
2022-08-17T03:23:10.055Z,18.56
2022-08-17T03:26:01.975Z,18.60
2022-08-17T03:28:50.065Z,18.70
2022-08-17T03:31:37.909Z,18.72
2022-08-17T03:34:25.738Z,18.50
2022-08-17T03:37:13.607Z,18.49
2022-08-17T03:40:02.895Z,18.46
2022-08-17T03:42:53.367Z,18.57
2022-08-17T03:46:03.047Z,18.55
2022-08-17T03:49:10.802Z,18.50
2022-08-17T03:52:17.106Z,18.46
2022-08-17T03:55:35.860Z,18.45
2022-08-17T03:58:24.377Z,18.43
2022-08-17T04:01:12.887Z,18.50
2022-08-17T04:04:00.751Z,18.43
2022-08-17T04:06:48.639Z,18.45
2022-08-17T04:09:36.622Z,18.37
2022-08-17T04:12:25.610Z,18.39
2022-08-17T04:15:13.660Z,18.39
2022-08-17T04:18:01.535Z,18.34
2022-08-17T04:20:49.379Z,18.28
2022-08-17T04:23:37.943Z,18.24
2022-08-17T04:26:53.039Z,18.33
2022-08-17T04:29:49.933Z,18.32
2022-08-17T04:33:06.306Z,18.23
2022-08-17T04:36:02.817Z,18.20
2022-08-17T04:38:50.750Z,18.28
2022-08-17T04:42:17.109Z,18.29
2022-08-17T04:45:05.646Z,18.36
2022-08-17T04:47:53.582Z,18.41
2022-08-17T04:50:46.877Z,18.51
2022-08-17T04:53:34.879Z,18.60
2022-08-17T04:56:25.808Z,18.62
2022-08-17T04:59:21.084Z,18.77
2022-08-17T05:02:08.950Z,18.84
2022-08-17T05:04:56.874Z,18.78
2022-08-17T05:07:44.982Z,18.69
2022-08-17T05:10:39.126Z,18.71
2022-08-17T05:13:33.537Z,18.78
2022-08-17T05:16:23.454Z,18.91
2022-08-17T05:19:11.310Z,18.86
2022-08-17T05:21:59.198Z,18.96
2022-08-17T05:24:53.442Z,19.05
2022-08-17T05:27:41.883Z,19.23
2022-08-17T05:30:31.279Z,19.15
2022-08-17T05:33:29.496Z,19.35
2022-08-17T05:36:43.659Z,19.40
2022-08-17T05:39:25.614Z,19.95
2022-08-17T05:42:19.562Z,20.30
2022-08-17T05:45:09.601Z,20.48
2022-08-17T05:47:57.656Z,20.80
2022-08-17T05:51:25.798Z,21.11
2022-08-17T05:54:55.139Z,21.49
2022-08-17T05:58:06.831Z,21.26
2022-08-17T06:01:31.731Z,21.48
2022-08-17T06:04:36.062Z,21.36
2022-08-17T06:07:29.479Z,21.17
2022-08-17T06:10:43.954Z,21.24
2022-08-17T06:14:01.896Z,21.24
2022-08-17T06:16:59.138Z,21.02
2022-08-17T06:19:56.627Z,21.03
2022-08-17T06:22:52.567Z,21.11
2022-08-17T06:25:50.276Z,21.20
2022-08-17T06:28:51.329Z,21.29
2022-08-17T06:31:40.657Z,21.31
2022-08-17T06:34:30.251Z,21.36
2022-08-17T06:37:48.923Z,21.46
2022-08-17T06:41:27.634Z,21.50
2022-08-17T06:44:43.479Z,21.50
2022-08-17T06:48:07.422Z,21.58
2022-08-17T06:51:09.110Z,21.62
2022-08-17T06:54:18.231Z,21.86
2022-08-17T06:57:31.981Z,22.14
2022-08-17T07:00:33.573Z,22.45
2022-08-17T07:03:41.067Z,22.79
2022-08-17T07:06:41.287Z,23.03
2022-08-17T07:09:36.241Z,23.16
2022-08-17T07:12:37.549Z,23.22
2022-08-17T07:15:44.470Z,23.06
2022-08-17T07:18:35.974Z,22.95
2022-08-17T07:24:51.656Z,22.45
2022-08-17T07:27:52.602Z,22.37
2022-08-17T07:30:49.347Z,22.44
2022-08-17T07:33:42.339Z,22.42
2022-08-17T07:36:34.432Z,22.54
2022-08-17T07:39:28.951Z,22.56
2022-08-17T07:42:19.863Z,22.62
2022-08-17T07:45:29.014Z,22.87
2022-08-17T07:48:28.423Z,23.09
2022-08-17T07:51:25.160Z,23.18
2022-08-17T07:54:25.861Z,23.42
2022-08-17T07:57:33.311Z,23.56
2022-08-17T08:00:32.502Z,23.88
2022-08-17T08:03:31.702Z,24.08
2022-08-17T08:06:26.397Z,24.40
2022-08-17T08:09:36.305Z,24.55
2022-08-17T08:12:47.202Z,24.55
2022-08-17T08:15:54.793Z,24.64
2022-08-17T08:18:55.493Z,24.61
2022-08-17T08:22:10.851Z,24.27
2022-08-17T08:25:11.257Z,23.87
2022-08-17T08:28:36.781Z,23.88
2022-08-17T08:32:13.408Z,23.56
2022-08-17T08:35:14.636Z,23.19
2022-08-17T08:38:53.687Z,22.95
2022-08-17T08:42:23.707Z,22.71
2022-08-17T08:45:28.609Z,22.57
2022-08-17T08:48:56.260Z,22.72
2022-08-17T08:52:01.967Z,22.73
2022-08-17T08:55:13.329Z,22.73
2022-08-17T08:58:31.429Z,22.71
2022-08-17T09:01:48.905Z,22.66
2022-08-17T09:05:13.472Z,22.63
2022-08-17T09:08:30.111Z,22.75
2022-08-17T09:12:01.133Z,22.80
2022-08-17T09:15:22.606Z,22.94
2022-08-17T09:19:01.133Z,23.05
2022-08-17T09:22:19.168Z,23.12
2022-08-17T09:25:16.797Z,23.03
2022-08-17T09:28:33.340Z,22.92
2022-08-17T09:31:48.757Z,22.90
2022-08-17T09:34:53.585Z,22.68
2022-08-17T09:38:04.556Z,22.19
2022-08-17T09:41:15.490Z,21.94
2022-08-17T09:44:26.559Z,21.99
2022-08-17T09:47:50.589Z,22.31
2022-08-17T09:51:09.684Z,22.91
2022-08-17T09:54:21.365Z,23.49
2022-08-17T09:57:56.759Z,24.25
2022-08-17T10:01:03.877Z,24.89
2022-08-17T10:04:29.566Z,25.29
2022-08-17T10:07:56.013Z,25.87
2022-08-17T10:11:05.890Z,26.38
2022-08-17T10:14:55.076Z,26.71
2022-08-17T10:18:21.450Z,27.32
2022-08-17T10:21:36.222Z,28.16
2022-08-17T10:25:21.807Z,28.34
2022-08-17T10:28:22.829Z,28.24
2022-08-17T10:31:36.558Z,28.01
2022-08-17T10:35:08.537Z,27.93
2022-08-17T10:38:34.736Z,27.68
2022-08-17T10:41:53.075Z,27.95
2022-08-17T10:45:04.155Z,28.03
2022-08-17T10:48:39.860Z,27.87
2022-08-17T10:51:43.525Z,28.06
2022-08-17T10:55:02.629Z,28.39
2022-08-17T10:58:22.206Z,28.68
2022-08-17T11:01:14.975Z,28.73
2022-08-17T11:04:42.501Z,28.77
2022-08-17T11:08:05.229Z,28.51
2022-08-17T11:11:35.926Z,28.28
2022-08-17T11:15:01.116Z,27.95
2022-08-17T11:18:54.329Z,27.53
2022-08-17T11:22:09.309Z,27.00
2022-08-17T11:25:22.950Z,26.40
2022-08-17T11:28:26.085Z,26.15
2022-08-17T11:31:44.290Z,26.20
2022-08-17T11:34:37.081Z,26.17
2022-08-17T11:38:03.074Z,25.97
2022-08-17T11:41:27.452Z,26.30
2022-08-17T11:44:43.545Z,26.77
2022-08-17T11:48:28.985Z,26.85
2022-08-17T11:51:28.645Z,27.29
2022-08-17T11:54:45.744Z,27.48
2022-08-17T11:57:34.507Z,27.54
2022-08-17T12:00:51.526Z,27.63
2022-08-17T12:03:53.793Z,27.60
2022-08-17T12:07:12.809Z,27.76
2022-08-17T12:10:02.409Z,27.35
2022-08-17T12:12:54.198Z,26.82
2022-08-17T12:15:50.194Z,26.72
2022-08-17T12:18:53.396Z,26.85
2022-08-17T12:22:04.197Z,26.91
2022-08-17T12:25:33.244Z,27.00
2022-08-17T12:28:37.200Z,27.12
2022-08-17T12:31:47.246Z,27.17
2022-08-17T12:34:46.203Z,27.34
2022-08-17T12:37:45.984Z,27.44
2022-08-17T12:40:38.093Z,27.62
2022-08-17T12:43:32.877Z,27.51
2022-08-17T12:46:25.761Z,27.53
2022-08-17T12:49:24.660Z,27.47
2022-08-17T12:52:32.829Z,27.52
2022-08-17T12:55:33.775Z,27.74
2022-08-17T12:58:31.515Z,27.74
2022-08-17T13:01:25.074Z,27.63
2022-08-17T13:04:20.305Z,27.64
2022-08-17T13:07:12.105Z,27.59
2022-08-17T13:10:02.912Z,27.54
2022-08-17T13:12:57.408Z,27.54
2022-08-17T13:16:15.969Z,27.59
2022-08-17T13:19:39.857Z,27.38
2022-08-17T13:22:34.767Z,27.22
2022-08-17T13:25:29.517Z,27.11
2022-08-17T13:28:30.668Z,27.19
2022-08-17T13:31:51.912Z,27.17
2022-08-17T13:35:13.781Z,27.31
2022-08-17T13:38:10.206Z,27.14
2022-08-17T13:41:01.832Z,27.16
2022-08-17T13:43:53.779Z,26.84
2022-08-17T13:46:56.946Z,26.81
2022-08-17T13:49:49.524Z,26.83
2022-08-17T13:52:43.756Z,26.65
2022-08-17T13:55:36.457Z,26.59
2022-08-17T13:58:39.774Z,26.81
2022-08-17T14:01:52.819Z,27.15
2022-08-17T14:04:46.943Z,27.48
2022-08-17T14:07:40.654Z,27.75
2022-08-17T14:10:30.368Z,27.99
2022-08-17T14:13:21.226Z,28.32
2022-08-17T14:16:13.644Z,28.53
2022-08-17T14:19:06.254Z,28.77
2022-08-17T14:21:58.825Z,28.75
2022-08-17T14:24:54.148Z,28.31
2022-08-17T14:27:52.453Z,28.21
2022-08-17T14:30:45.247Z,28.54
2022-08-17T14:33:39.401Z,28.74
2022-08-17T14:36:31.825Z,29.03
2022-08-17T14:39:23.143Z,29.04
2022-08-17T14:42:17.821Z,28.90
2022-08-17T14:45:31.740Z,28.87
2022-08-17T14:48:22.162Z,28.77
2022-08-17T14:51:14.548Z,28.37
2022-08-17T14:54:08.767Z,28.50
2022-08-17T14:57:23.828Z,28.45
2022-08-17T15:00:10.312Z,28.29
2022-08-17T15:03:03.177Z,28.18
2022-08-17T15:05:54.308Z,28.09
2022-08-17T15:08:47.285Z,28.05
2022-08-17T15:11:39.549Z,27.86
2022-08-17T15:14:33.906Z,27.83
2022-08-17T15:17:24.524Z,27.80
2022-08-17T15:20:23.858Z,27.64
2022-08-17T15:23:21.952Z,27.61
2022-08-17T15:26:14.033Z,27.75
2022-08-17T15:29:05.410Z,27.61
2022-08-17T15:32:02.835Z,27.72
2022-08-17T15:34:57.408Z,27.84
2022-08-17T15:37:51.559Z,27.78
2022-08-17T15:40:45.369Z,27.83
2022-08-17T15:43:39.425Z,27.88
2022-08-17T15:46:31.484Z,27.61
2022-08-17T15:49:27.540Z,27.38
2022-08-17T15:52:30.314Z,27.32
2022-08-17T15:55:24.225Z,27.35
2022-08-17T15:58:20.083Z,27.20
2022-08-17T16:03:01.077Z,27.30
2022-08-17T16:04:33.908Z,27.45
2022-08-17T16:07:26.716Z,27.45
2022-08-17T16:10:19.862Z,27.49
2022-08-17T16:13:17.420Z,27.52
2022-08-17T16:16:14.799Z,27.47
2022-08-17T16:19:04.323Z,27.56
2022-08-17T16:21:55.730Z,27.63
2022-08-17T16:24:56.953Z,27.67
2022-08-17T16:27:53.494Z,27.62
2022-08-17T16:30:46.571Z,27.56
2022-08-17T16:38:07.113Z,27.76
2022-08-17T16:40:56.763Z,27.78
2022-08-17T16:43:47.156Z,27.88
2022-08-17T16:46:40.296Z,27.87
2022-08-17T16:49:38.096Z,27.95
2022-08-17T16:52:32.297Z,27.86
2022-08-17T16:55:25.592Z,27.81
2022-08-17T16:58:15.882Z,27.96
2022-08-17T17:01:07.810Z,28.05
2022-08-17T17:04:04.476Z,28.11
2022-08-17T17:07:34.466Z,28.06
2022-08-17T17:10:41.429Z,27.97
2022-08-17T17:13:49.152Z,27.92
2022-08-17T17:17:03.897Z,27.85
2022-08-17T17:20:21.698Z,27.91
2022-08-17T17:23:34.517Z,27.92
2022-08-17T17:26:59.124Z,27.92
2022-08-17T17:30:16.085Z,27.84
2022-08-17T17:33:18.466Z,27.83
2022-08-17T17:36:36.418Z,27.89
2022-08-17T17:39:52.561Z,28.05
2022-08-17T17:42:44.674Z,27.99
2022-08-17T17:46:07.699Z,27.89
2022-08-17T17:49:14.435Z,27.78
2022-08-17T17:52:19.081Z,27.71
2022-08-17T17:55:59.911Z,27.62
2022-08-17T17:59:18.138Z,27.64
2022-08-17T18:02:51.527Z,27.61
2022-08-17T18:06:12.494Z,27.55
2022-08-17T18:09:40.763Z,27.32
2022-08-17T18:13:11.936Z,27.32
2022-08-17T18:16:05.751Z,27.23
2022-08-17T18:18:58.022Z,27.22
2022-08-17T18:22:22.166Z,27.20
2022-08-17T18:25:44.902Z,27.06
2022-08-17T18:28:43.223Z,26.99
2022-08-17T18:31:34.789Z,26.90
2022-08-17T18:34:47.249Z,26.93
2022-08-17T18:37:45.717Z,26.84
2022-08-17T18:40:39.165Z,26.74
2022-08-17T18:43:52.966Z,26.58
2022-08-17T18:46:45.317Z,26.45
2022-08-17T18:49:36.922Z,26.25
2022-08-17T18:52:33.732Z,26.04
2022-08-17T18:55:30.061Z,25.96
2022-08-17T18:58:26.887Z,25.82
2022-08-17T19:01:21.510Z,25.80
2022-08-17T19:04:40.066Z,25.73
2022-08-17T19:07:48.853Z,25.57
2022-08-17T19:10:46.270Z,25.48
2022-08-17T19:13:58.230Z,25.42
2022-08-17T19:17:05.485Z,25.33
2022-08-17T19:20:19.819Z,25.19
2022-08-17T19:23:30.408Z,25.15
2022-08-17T19:26:50.730Z,25.03
2022-08-17T19:30:01.652Z,24.99
2022-08-17T19:32:58.313Z,24.88
2022-08-17T19:36:07.941Z,24.84
2022-08-17T19:39:26.460Z,24.77
2022-08-17T19:42:56.293Z,24.67
2022-08-17T19:46:36.587Z,24.59
2022-08-17T19:50:02.299Z,24.45
2022-08-17T19:54:05.031Z,24.42
2022-08-17T19:57:20.183Z,24.31
2022-08-17T20:00:20.897Z,24.29
2022-08-17T20:03:34.741Z,24.29
2022-08-17T20:06:27.094Z,24.28
2022-08-17T20:09:44.340Z,24.25
2022-08-17T20:12:43.981Z,24.20
2022-08-17T20:15:39.158Z,24.23
2022-08-17T20:18:53.419Z,24.21
2022-08-17T20:22:11.305Z,24.23
2022-08-17T20:25:30.911Z,24.16
2022-08-17T20:28:31.716Z,24.05
2022-08-17T20:31:50.512Z,24.04
2022-08-17T20:34:42.576Z,23.93
2022-08-17T20:37:37.126Z,23.88
2022-08-17T20:40:41.752Z,23.76
2022-08-17T20:43:43.491Z,23.71
2022-08-17T20:46:51.546Z,23.56
2022-08-17T20:49:54.934Z,23.52
2022-08-17T20:53:00.811Z,23.48
2022-08-17T20:55:55.718Z,23.41
2022-08-17T20:58:48.227Z,23.22
2022-08-17T21:01:41.119Z,23.21
2022-08-17T21:04:54.569Z,23.14
2022-08-17T21:07:58.113Z,23.12
2022-08-17T21:10:50.215Z,23.01
2022-08-17T21:14:19.773Z,23.04
2022-08-17T21:17:43.090Z,23.08
2022-08-17T21:21:17.776Z,23.09
2022-08-17T21:24:41.891Z,23.03
2022-08-17T21:28:13.338Z,23.05
2022-08-17T21:31:09.723Z,23.00
2022-08-17T21:34:27.058Z,23.02
2022-08-17T21:37:29.482Z,22.89
2022-08-17T21:40:32.072Z,22.86
2022-08-17T21:43:32.448Z,22.86
2022-08-17T21:46:31.174Z,22.83
2022-08-17T21:49:28.612Z,22.86
2022-08-17T21:52:23.605Z,22.84
2022-08-17T21:55:30.303Z,22.80
2022-08-17T21:58:36.699Z,22.86
2022-08-17T22:01:39.107Z,22.86
2022-08-17T22:04:38.868Z,22.92
2022-08-17T22:07:53.181Z,22.86
2022-08-17T22:10:46.028Z,22.91
2022-08-17T22:13:40.091Z,22.93
2022-08-17T22:16:31.574Z,22.93
2022-08-17T22:19:22.585Z,22.90
2022-08-17T22:22:34.105Z,23.01
2022-08-17T22:25:27.949Z,22.98
2022-08-17T22:28:52.327Z,23.02
2022-08-17T22:31:57.532Z,23.04
2022-08-17T22:35:15.721Z,22.94
2022-08-17T22:38:21.938Z,23.05
2022-08-17T22:41:26.862Z,23.01
2022-08-17T22:44:32.906Z,23.01
2022-08-17T22:47:39.482Z,23.07
2022-08-17T22:50:31.585Z,23.08
2022-08-17T22:53:42.726Z,23.10
2022-08-17T22:56:51.228Z,23.06
2022-08-17T22:59:52.689Z,23.03
2022-08-17T23:03:23.732Z,23.05
2022-08-17T23:06:14.768Z,22.99
2022-08-17T23:09:09.055Z,23.02
2022-08-17T23:12:01.929Z,22.86
2022-08-17T23:14:57.386Z,22.97
2022-08-17T23:17:48.037Z,22.98
2022-08-17T23:20:42.412Z,23.03
2022-08-17T23:23:33.824Z,23.03
2022-08-17T23:26:27.794Z,23.04
2022-08-17T23:29:21.296Z,23.00
2022-08-17T23:32:14.939Z,23.03
2022-08-17T23:35:05.280Z,22.90
2022-08-17T23:37:58.709Z,22.87
2022-08-17T23:40:49.351Z,22.86
2022-08-17T23:43:44.053Z,22.84
2022-08-17T23:46:34.714Z,22.82
2022-08-17T23:49:25.127Z,22.80
2022-08-17T23:52:16.631Z,22.80
2022-08-17T23:55:08.379Z,22.64
2022-08-17T23:57:59.374Z,22.69
